Flight Track Log - Related Links

Times and Time Zones

All times are in EDT time to prevent confusion due to time zone crossing. See the ASQ5678 flight status page for this flight to view local times or setup timezone preferences in your user account.

Time Position Orientation Groundspeed Altitude Reporting Facility
EDT Latitude Longitude Course Direction KTS MPH feet Rate Location/Type
Mon 08:19:00 AM 34.7133 -92.2519 174° South 161 185 1,000  Level Memphis Center
Mon 08:20:13 AM 34.6469 -92.2428 174° South 244 281 3,300 2,057 Climbing Memphis Center
Mon 08:21:20 AM 34.5700 -92.2261 170° South 265 305 5,800 2,304 Climbing Memphis Center
Mon 08:22:18 AM 34.4969 -92.2169 174° South 271 312 8,100 2,237 Climbing Memphis Center
Mon 08:23:18 AM 34.4197 -92.2303 188° South 277 319 10,200 1,400 Climbing Memphis Center
Mon 08:24:18 AM 34.3317 -92.2461 188° South 288 331 10,900 850 Climbing Memphis Center
Mon 08:25:18 AM 34.2314 -92.2639 188° South 336 387 11,900 1,100 Climbing Memphis Center
Mon 08:26:18 AM 34.1308 -92.2844 190° South 363 418 13,100 1,100 Climbing Memphis Center
Mon 08:27:18 AM 34.0344 -92.3047 190° South 382 440 14,100 929 Climbing Memphis Center
Mon 08:29:06 AM 33.8267 -92.3406 188° South 393 452 15,700 893 Climbing Fort Worth Center
Mon 08:30:06 AM 33.7169 -92.3619 189° South 404 465 16,600 900 Climbing Fort Worth Center
Mon 08:31:06 AM 33.6075 -92.3883 191° South 410 472 17,500 700 Climbing Fort Worth Center
Mon 08:32:06 AM 33.5033 -92.4489 206° Southwest 410 472 18,000 250 Climbing Fort Worth Center
Mon 08:33:06 AM 33.3994 -92.5094 206° Southwest 410 472 18,000  Level Fort Worth Center
Mon 08:34:06 AM 33.3017 -92.5722 208° Southwest 415 478 18,000  Level Fort Worth Center
Mon 08:35:06 AM 33.1975 -92.6325 206° Southwest 415 478 18,000  Level Fort Worth Center
Mon 08:36:06 AM 33.0956 -92.6950 207° Southwest 420 483 18,000  Level Fort Worth Center
Mon 08:37:06 AM 32.9914 -92.7550 206° Southwest 420 483 18,000  Level Fort Worth Center
Mon 08:38:06 AM 32.8892 -92.8147 206° Southwest 420 483 18,000  Level Fort Worth Center
Mon 08:39:06 AM 32.7808 -92.8769 206° Southwest 420 483 18,000  Level Fort Worth Center
Mon 08:40:06 AM 32.6747 -92.9417 207° Southwest 426 490 18,000  Level Fort Worth Center
Mon 08:41:06 AM 32.5722 -93.0008 206° Southwest 434 499 18,000  Level Fort Worth Center
Mon 08:42:06 AM 32.4683 -93.0675 208° Southwest 429 494 18,000  Level Fort Worth Center
Mon 08:43:06 AM 32.3639 -93.1267 206° Southwest 418 481 18,000  Level Fort Worth Center
Mon 08:44:06 AM 32.2594 -93.1881 206° Southwest 424 488 18,000  Level Fort Worth Center
Mon 08:45:06 AM 32.1572 -93.2492 207° Southwest 418 481 18,000  Level Fort Worth Center
Mon 08:46:06 AM 32.0525 -93.3103 206° Southwest 423 487 18,000  Level Fort Worth Center
Mon 08:47:06 AM 31.9481 -93.3714 206° Southwest 418 481 18,000  Level Fort Worth Center
Mon 08:48:32 AM 31.8153 -93.4453 205° Southwest 418 481 18,000  Level Houston Center
Mon 08:49:34 AM 31.7128 -93.5042 206° Southwest 414 476 18,000  Level Houston Center
Mon 08:50:35 AM 31.5886 -93.5758 206° Southwest 416 479 18,000  Level Houston Center
Mon 08:51:37 AM 31.4950 -93.6292 206° Southwest 420 483 18,000  Level Houston Center
Mon 08:52:39 AM 31.3681 -93.7011 206° Southwest 421 484 18,000  Level Houston Center
Mon 08:53:41 AM 31.2622 -93.7617 206° Southwest 421 484 18,000  Level Houston Center
Mon 08:54:43 AM 31.1703 -93.8142 206° Southwest 420 483 18,000  Level Houston Center
Mon 08:55:44 AM 31.0442 -93.8853 206° Southwest 421 484 18,000  Level Houston Center
Mon 08:56:46 AM 30.9403 -93.9450 206° Southwest 420 483 18,000  Level Houston Center
Mon 08:57:48 AM 30.8356 -94.0042 206° Southwest 419 482 18,000  Level Houston Center
Mon 08:58:50 AM 30.7317 -94.0631 206° Southwest 418 481 18,000 -145 Level Houston Center
Mon 08:59:52 AM 30.6278 -94.1217 206° Southwest 418 481 17,700 -677 Descending Houston Center
Mon 09:00:54 AM 30.5247 -94.1800 206° Southwest 415 478 16,600 -1,211 Descending Houston Center
Mon 09:01:41 AM 30.4292 -94.2347 206° Southwest 400 460 15,500 -1,306 Descending Houston Center
Mon 09:02:58 AM 30.3106 -94.3058 207° Southwest 394 453 13,900 -1,377 Descending Houston Center
Mon 09:03:43 AM 30.2578 -94.3931 235° Southwest 388 447 12,700 -1,514 Descending Houston Center
Mon 09:04:45 AM 30.2050 -94.4967 240° Southwest 375 432 11,200 -1,317 Descending Houston Center
Mon 09:05:46 AM 30.1519 -94.6003 239° Southwest 364 419 10,000 -590 Descending Houston Center
Mon 09:06:47 AM 30.1081 -94.6881 240° Southwest 298 343 10,000 -443 Level Houston Center
Mon 09:07:48 AM 30.0831 -94.7783 252° West 273 314 9,100 -984 Descending Houston Center
Mon 09:08:49 AM 30.0661 -94.8650 257° West 278 320 8,000 -1,180 Descending Houston Center
Mon 09:09:50 AM 30.0489 -94.9492 257° West 265 305 6,700 -1,475 Descending Houston Center
Mon 09:10:51 AM 30.0311 -95.0286 256° West 260 299 5,000 -1,707 Descending Houston Center
Mon 09:11:53 AM 30.0119 -95.1156 256° West 256 295 3,200 -1,475 Descending Houston Center
Mon 09:12:53 AM 29.9997 -95.1869 259° West 221 254 2,000 -843 Descending Houston Center
Mon 09:13:54 AM 29.9922 -95.2408 261° West 153 176 1,500 -590 Descending Houston Center
Mon 09:14:55 AM 29.9922 -95.2867 270° West 132 152 800 -689 Descending Houston Center

Login

Don't have an account? Register now (free) for customized features, flight alerts, and more!